Time;durP1;ratioP1;P1;durP2;ratioP2;P2;SDS_P1;SDS_P2;PMS_P1;PMS_P2;Temp;Humidity;BMP_temperature;BMP_pressure;BME280_temperature;BME280_humidity;BME280_pressure;Samples;Min_cycle;Max_cycle;Signal;HPM_P1;HPM_P2
2021/07/20 00:00:33;;;;;;;530.05;391.50;;;;;;;;;;4938850;28;20031;-75
2021/07/20 00:02:59;;;;;;;525.92;376.02;;;;;;;;;;4941702;28;20050;-75
2021/07/20 00:05:26;;;;;;;529.67;386.30;;;;;;;;;;4943403;28;20031;-75
2021/07/20 00:08:00;;;;;;;528.63;381.27;;;;;;;;;;4945674;28;20042;-75
2021/07/20 00:10:28;;;;;;;529.00;379.63;;;;;;;;;;4943521;28;20510;-76
2021/07/20 00:12:54;;;;;;;546.45;377.38;;;;;;;;;;4939637;28;20893;-75
2021/07/20 00:15:21;;;;;;;527.53;389.15;;;;;;;;;;4946487;28;20035;-76
2021/07/20 00:17:48;;;;;;;523.60;373.05;;;;;;;;;;4949142;28;20031;-75
2021/07/20 00:20:16;;;;;;;525.88;377.50;;;;;;;;;;4966449;28;20018;-76
2021/07/20 00:22:43;;;;;;;527.00;386.20;;;;;;;;;;4968483;28;20410;-75
2021/07/20 00:25:10;;;;;;;526.80;377.35;;;;;;;;;;4951612;28;20032;-75
2021/07/20 00:27:36;;;;;;;528.42;386.75;;;;;;;;;;4945501;28;20038;-75
2021/07/20 00:30:03;;;;;;;526.90;383.42;;;;;;;;;;4970148;28;20390;-75
2021/07/20 00:32:29;;;;;;;525.17;377.90;;;;;;;;;;4942669;28;20035;-76
2021/07/20 00:34:55;;;;;;;525.47;379.90;;;;;;;;;;4950601;28;20479;-75
2021/07/20 00:37:21;;;;;;;525.03;379.50;;;;;;;;;;4947613;28;20039;-75
2021/07/20 00:39:47;;;;;;;523.72;376.92;;;;;;;;;;4971860;28;20101;-75
2021/07/20 00:42:13;;;;;;;525.28;375.00;;;;;;;;;;4971808;28;20094;-75
2021/07/20 00:44:39;;;;;;;522.83;370.67;;;;;;;;;;4969574;28;20946;-75
2021/07/20 00:47:05;;;;;;;525.45;380.40;;;;;;;;;;4952810;28;20055;-75
2021/07/20 00:49:31;;;;;;;527.30;383.73;;;;;;;;;;4970603;28;20026;-75
2021/07/20 00:51:57;;;;;;;524.22;375.40;;;;;;;;;;4954250;28;20094;-75
2021/07/20 00:54:23;;;;;;;526.65;377.55;;;;;;;;;;4956884;28;20028;-75
2021/07/20 00:56:49;;;;;;;523.50;372.40;;;;;;;;;;4953078;28;20023;-75
2021/07/20 00:59:15;;;;;;;531.65;384.00;;;;;;;;;;4974269;28;20589;-75
2021/07/20 01:01:47;;;;;;;524.42;372.27;;;;;;;;;;4950964;28;20034;-75
2021/07/20 01:04:13;;;;;;;521.40;365.20;;;;;;;;;;4965239;28;20035;-74
2021/07/20 01:06:40;;;;;;;526.10;375.63;;;;;;;;;;4942732;28;20368;-75
2021/07/20 01:09:06;;;;;;;524.55;374.48;;;;;;;;;;4951767;28;20034;-75
2021/07/20 01:11:33;;;;;;;525.70;377.20;;;;;;;;;;4944209;29;20043;-75
2021/07/20 01:14:01;;;;;;;524.97;367.10;;;;;;;;;;4953455;28;20118;-76
2021/07/20 01:16:27;;;;;;;526.28;373.42;;;;;;;;;;4952806;28;20058;-75
2021/07/20 01:18:53;;;;;;;532.33;373.73;;;;;;;;;;4947180;28;20042;-75
2021/07/20 01:21:19;;;;;;;524.75;374.75;;;;;;;;;;4952098;28;20027;-75
2021/07/20 01:23:47;;;;;;;528.28;372.73;;;;;;;;;;4948766;28;20051;-75
2021/07/20 01:26:14;;;;;;;523.85;365.05;;;;;;;;;;4967267;28;20024;-76
2021/07/20 01:28:41;;;;;;;526.72;377.30;;;;;;;;;;4952252;28;20054;-75
2021/07/20 01:31:16;;;;;;;525.78;373.80;;;;;;;;;;4973653;28;20033;-75
2021/07/20 01:33:58;;;;;;;525.90;374.33;;;;;;;;;;4964702;28;20023;-75
2021/07/20 01:36:25;;;;;;;524.58;367.52;;;;;;;;;;4955364;28;20042;-75
2021/07/20 01:38:52;;;;;;;527.55;371.92;;;;;;;;;;4970953;28;20038;-75
2021/07/20 01:41:18;;;;;;;527.63;372.60;;;;;;;;;;4951864;28;20019;-75
2021/07/20 01:43:46;;;;;;;524.85;371.35;;;;;;;;;;4951440;28;20034;-75
2021/07/20 01:46:13;;;;;;;525.88;368.85;;;;;;;;;;4970474;28;20162;-75
2021/07/20 01:48:42;;;;;;;523.90;364.10;;;;;;;;;;4968511;28;20060;-76
2021/07/20 01:51:08;;;;;;;522.85;363.05;;;;;;;;;;4969741;28;20097;-75
2021/07/20 01:53:34;;;;;;;524.17;366.92;;;;;;;;;;4947245;28;20050;-75
2021/07/20 01:56:07;;;;;;;522.45;361.63;;;;;;;;;;4945363;28;20038;-75
2021/07/20 01:58:37;;;;;;;525.75;370.63;;;;;;;;;;4951730;28;20509;-75
2021/07/20 02:01:03;;;;;;;528.78;372.60;;;;;;;;;;4950910;28;20026;-75
2021/07/20 02:09:06;;;;;;;522.85;351.35;;;;;;;;;;4965128;28;20086;-75
2021/07/20 02:11:35;;;;;;;523.97;358.35;;;;;;;;;;4945009;28;20034;-75
2021/07/20 02:14:04;;;;;;;525.08;360.10;;;;;;;;;;4963507;28;20023;-76
2021/07/20 02:16:33;;;;;;;526.42;363.73;;;;;;;;;;4944277;28;20034;-76
2021/07/20 02:19:19;;;;;;;526.92;365.08;;;;;;;;;;4943040;28;20027;-75
2021/07/20 02:21:47;;;;;;;524.55;355.35;;;;;;;;;;4952023;28;20117;-75
2021/07/20 02:24:15;;;;;;;529.17;368.08;;;;;;;;;;4945586;28;20430;-76
2021/07/20 02:26:41;;;;;;;523.55;358.80;;;;;;;;;;4962872;28;20031;-75
2021/07/20 02:29:07;;;;;;;529.22;372.20;;;;;;;;;;4945312;28;20033;-76
2021/07/20 02:31:34;;;;;;;525.72;359.60;;;;;;;;;;4961961;28;20027;-75
2021/07/20 02:34:02;;;;;;;526.58;359.85;;;;;;;;;;4962827;28;20527;-75
2021/07/20 02:36:29;;;;;;;526.75;363.38;;;;;;;;;;4945908;28;20031;-76
2021/07/20 02:39:09;;;;;;;525.05;357.40;;;;;;;;;;4939431;28;20031;-76
2021/07/20 02:41:37;;;;;;;527.35;360.42;;;;;;;;;;4945329;28;20513;-75
2021/07/20 02:44:04;;;;;;;529.90;368.33;;;;;;;;;;4963264;28;20018;-75
2021/07/20 02:46:30;;;;;;;524.78;358.20;;;;;;;;;;4945456;28;20361;-75
2021/07/20 02:48:57;;;;;;;527.13;369.88;;;;;;;;;;4951274;28;20069;-76
2021/07/20 02:51:24;;;;;;;524.28;360.65;;;;;;;;;;4944401;28;20137;-75
2021/07/20 02:53:52;;;;;;;527.63;362.65;;;;;;;;;;4943043;28;20508;-76
2021/07/20 02:56:19;;;;;;;528.15;367.67;;;;;;;;;;4964824;28;20023;-76
2021/07/20 02:58:46;;;;;;;528.42;368.95;;;;;;;;;;4948911;28;20031;-76
2021/07/20 03:01:12;;;;;;;527.70;366.75;;;;;;;;;;4940549;28;20105;-76
2021/07/20 03:03:38;;;;;;;524.65;360.88;;;;;;;;;;4946701;28;20138;-76
2021/07/20 03:06:06;;;;;;;526.38;363.92;;;;;;;;;;4944846;28;20031;-76
2021/07/20 03:08:34;;;;;;;524.20;355.40;;;;;;;;;;4961852;28;20069;-76
2021/07/20 03:11:01;;;;;;;524.90;355.60;;;;;;;;;;4944019;28;20387;-76
2021/07/20 03:13:28;;;;;;;525.15;356.77;;;;;;;;;;4946329;28;20431;-76
2021/07/20 03:15:54;;;;;;;526.42;353.92;;;;;;;;;;4939731;28;20031;-76
2021/07/20 03:18:24;;;;;;;524.38;354.25;;;;;;;;;;4960353;28;20881;-76
2021/07/20 03:20:51;;;;;;;527.28;357.95;;;;;;;;;;4940729;28;20039;-76
2021/07/20 03:23:17;;;;;;;523.50;347.55;;;;;;;;;;4943148;28;20047;-76
2021/07/20 03:25:43;;;;;;;522.58;346.50;;;;;;;;;;4942436;28;20018;-76
2021/07/20 03:28:09;;;;;;;525.33;351.90;;;;;;;;;;4944129;28;20101;-76
2021/07/20 03:30:35;;;;;;;524.40;349.45;;;;;;;;;;4942074;28;20074;-76
2021/07/20 03:33:03;;;;;;;527.42;356.63;;;;;;;;;;4942014;28;20525;-76
2021/07/20 03:35:29;;;;;;;525.38;355.00;;;;;;;;;;4941417;28;20027;-76
2021/07/20 03:37:55;;;;;;;529.05;360.33;;;;;;;;;;4941851;28;20038;-76
2021/07/20 03:40:21;;;;;;;527.97;356.88;;;;;;;;;;4938133;28;20244;-76
2021/07/20 03:42:48;;;;;;;528.88;359.63;;;;;;;;;;4964684;28;20023;-75
2021/07/20 03:45:14;;;;;;;535.42;361.52;;;;;;;;;;4941463;28;20028;-76
2021/07/20 03:47:42;;;;;;;528.38;357.27;;;;;;;;;;4941064;28;20431;-75
2021/07/20 03:50:08;;;;;;;527.65;354.83;;;;;;;;;;4940497;28;20078;-75
2021/07/20 03:52:35;;;;;;;527.35;352.42;;;;;;;;;;4946674;28;20051;-76
2021/07/20 03:55:01;;;;;;;527.20;351.40;;;;;;;;;;4940303;28;20035;-76
2021/07/20 03:57:28;;;;;;;529.28;357.55;;;;;;;;;;4963957;28;20045;-75
2021/07/20 03:59:56;;;;;;;531.83;361.35;;;;;;;;;;4951697;28;20086;-75
2021/07/20 04:02:23;;;;;;;530.33;355.38;;;;;;;;;;4945955;28;20030;-75
2021/07/20 04:04:50;;;;;;;528.35;355.70;;;;;;;;;;4947855;28;20046;-75
2021/07/20 04:07:19;;;;;;;529.70;356.55;;;;;;;;;;4967439;28;20031;-75
2021/07/20 04:09:45;;;;;;;525.13;353.23;;;;;;;;;;4947603;28;20030;-75
2021/07/20 04:12:15;;;;;;;525.05;346.45;;;;;;;;;;4966120;28;20038;-75
2021/07/20 04:14:42;;;;;;;528.28;349.20;;;;;;;;;;4945374;28;20081;-75
2021/07/20 04:17:09;;;;;;;536.42;365.13;;;;;;;;;;4950148;28;20031;-75
2021/07/20 04:19:35;;;;;;;536.65;360.10;;;;;;;;;;4944920;28;20019;-75
2021/07/20 04:22:02;;;;;;;534.88;363.15;;;;;;;;;;4946207;28;20453;-75
2021/07/20 04:24:28;;;;;;;550.45;380.50;;;;;;;;;;4971524;28;20917;-75
2021/07/20 04:26:54;;;;;;;562.35;383.05;;;;;;;;;;4971476;28;20030;-75
2021/07/20 04:29:21;;;;;;;559.70;385.90;;;;;;;;;;4952331;28;20471;-74
2021/07/20 04:31:49;;;;;;;565.22;383.05;;;;;;;;;;4971404;28;20031;-75
2021/07/20 04:34:16;;;;;;;569.28;383.65;;;;;;;;;;4948618;28;20114;-75
2021/07/20 04:36:52;;;;;;;565.55;372.45;;;;;;;;;;4946913;28;20125;-75
2021/07/20 04:39:18;;;;;;;573.88;383.55;;;;;;;;;;4940935;29;20118;-75
2021/07/20 04:41:46;;;;;;;584.55;399.92;;;;;;;;;;4947853;28;20118;-75
2021/07/20 04:44:13;;;;;;;587.97;408.02;;;;;;;;;;4955957;28;20420;-75
2021/07/20 04:46:40;;;;;;;584.10;398.33;;;;;;;;;;4943653;28;20380;-75
2021/07/20 04:49:06;;;;;;;595.55;409.13;;;;;;;;;;4942967;28;20041;-75
2021/07/20 04:51:32;;;;;;;602.30;411.83;;;;;;;;;;4951014;28;20074;-75
2021/07/20 04:54:04;;;;;;;608.00;417.30;;;;;;;;;;4968924;28;20061;-75
2021/07/20 04:56:31;;;;;;;615.05;412.27;;;;;;;;;;4947370;28;20101;-74
2021/07/20 04:58:57;;;;;;;606.60;420.13;;;;;;;;;;4950607;28;20035;-74
2021/07/20 05:01:24;;;;;;;616.05;431.92;;;;;;;;;;4943853;28;20023;-74
2021/07/20 05:03:50;;;;;;;615.92;427.15;;;;;;;;;;4945917;28;20065;-74
2021/07/20 05:06:16;;;;;;;609.63;422.02;;;;;;;;;;4944726;29;20050;-74
2021/07/20 05:08:43;;;;;;;623.88;437.92;;;;;;;;;;4936931;29;20727;-74
2021/07/20 05:11:09;;;;;;;624.60;423.60;;;;;;;;;;4937542;29;20031;-75
2021/07/20 05:13:35;;;;;;;625.95;428.55;;;;;;;;;;4937084;29;20083;-73
2021/07/20 05:16:02;;;;;;;624.38;436.10;;;;;;;;;;4954225;29;20043;-74
2021/07/20 05:18:29;;;;;;;613.78;432.45;;;;;;;;;;4952903;29;20087;-75
2021/07/20 05:20:56;;;;;;;619.42;440.73;;;;;;;;;;4936568;28;20024;-74
2021/07/20 05:23:22;;;;;;;624.15;435.88;;;;;;;;;;4955508;28;20478;-74
2021/07/20 05:25:51;;;;;;;615.58;439.10;;;;;;;;;;4967314;28;20023;-74
2021/07/20 05:28:17;;;;;;;606.33;426.17;;;;;;;;;;4958029;28;20035;-74
2021/07/20 05:30:45;;;;;;;609.45;440.50;;;;;;;;;;4957815;28;20077;-74
2021/07/20 05:33:11;;;;;;;611.92;447.67;;;;;;;;;;4957427;29;20038;-74
2021/07/20 05:35:38;;;;;;;614.95;447.65;;;;;;;;;;4939994;29;20538;-74
2021/07/20 05:38:04;;;;;;;620.22;452.10;;;;;;;;;;4939732;29;20091;-75
2021/07/20 05:40:31;;;;;;;610.45;433.20;;;;;;;;;;4956671;29;20023;-74
2021/07/20 05:42:57;;;;;;;603.17;426.80;;;;;;;;;;4957117;29;20030;-75
2021/07/20 05:45:24;;;;;;;621.45;454.83;;;;;;;;;;4976002;28;20019;-75
2021/07/20 05:47:50;;;;;;;610.45;441.50;;;;;;;;;;4976239;28;20102;-75
2021/07/20 05:50:17;;;;;;;612.83;449.10;;;;;;;;;;4966240;28;20090;-75
2021/07/20 05:52:44;;;;;;;619.00;451.20;;;;;;;;;;4939143;29;20066;-75
2021/07/20 05:55:12;;;;;;;623.95;457.58;;;;;;;;;;4956732;29;20027;-75
2021/07/20 05:57:39;;;;;;;612.05;442.35;;;;;;;;;;4952338;28;20076;-75
2021/07/20 06:00:06;;;;;;;611.67;447.38;;;;;;;;;;4958029;28;20031;-75
2021/07/20 06:02:32;;;;;;;600.42;433.55;;;;;;;;;;4954970;29;20023;-75
2021/07/20 06:05:01;;;;;;;609.50;452.23;;;;;;;;;;4938916;29;20089;-75
2021/07/20 06:07:27;;;;;;;607.20;455.42;;;;;;;;;;4939220;29;20094;-75
2021/07/20 06:09:53;;;;;;;595.75;451.55;;;;;;;;;;4938918;29;20366;-75
2021/07/20 06:12:21;;;;;;;595.75;452.08;;;;;;;;;;4938969;29;20027;-75
2021/07/20 06:14:47;;;;;;;604.65;463.58;;;;;;;;;;4944284;28;20065;-75
2021/07/20 06:17:13;;;;;;;599.90;455.65;;;;;;;;;;4973088;28;20387;-75
2021/07/20 06:19:39;;;;;;;598.88;448.88;;;;;;;;;;4954594;29;20034;-75
2021/07/20 06:22:07;;;;;;;598.40;454.95;;;;;;;;;;4938621;29;20653;-74
2021/07/20 06:24:35;;;;;;;599.35;463.92;;;;;;;;;;4955848;29;20424;-75
2021/07/20 06:27:02;;;;;;;590.25;453.13;;;;;;;;;;4963352;28;20486;-74
2021/07/20 06:29:28;;;;;;;600.15;470.90;;;;;;;;;;4974769;28;20077;-74
2021/07/20 06:31:54;;;;;;;626.40;473.67;;;;;;;;;;4957644;28;20493;-74
2021/07/20 06:34:21;;;;;;;591.25;455.80;;;;;;;;;;4957648;28;20128;-74
2021/07/20 06:36:47;;;;;;;597.55;467.27;;;;;;;;;;4974474;28;20026;-74
2021/07/20 06:39:13;;;;;;;593.65;464.67;;;;;;;;;;4974900;28;20482;-74
2021/07/20 06:41:39;;;;;;;595.78;468.55;;;;;;;;;;4971175;28;20091;-73
2021/07/20 06:44:06;;;;;;;600.65;468.55;;;;;;;;;;4957915;28;20082;-74
2021/07/20 06:46:33;;;;;;;594.67;473.63;;;;;;;;;;4957774;28;20031;-74
2021/07/20 06:48:59;;;;;;;591.22;463.90;;;;;;;;;;4962250;28;20062;-74
2021/07/20 06:51:28;;;;;;;586.35;467.42;;;;;;;;;;4938661;29;20704;-75
2021/07/20 06:53:54;;;;;;;578.85;457.65;;;;;;;;;;4938564;29;20035;-73
2021/07/20 06:56:33;;;;;;;581.22;469.38;;;;;;;;;;4938710;29;20031;-74
2021/07/20 06:59:00;;;;;;;577.20;461.33;;;;;;;;;;4956052;29;20035;-74
2021/07/20 07:01:27;;;;;;;582.35;472.85;;;;;;;;;;4955675;29;20015;-73
2021/07/20 07:03:57;;;;;;;576.53;469.30;;;;;;;;;;4967391;28;20039;-74
2021/07/20 07:06:27;;;;;;;575.30;463.08;;;;;;;;;;4973942;28;20799;-74
2021/07/20 07:08:55;;;;;;;579.30;471.38;;;;;;;;;;4952586;28;20066;-74
2021/07/20 07:11:20;;;;;;;581.30;476.15;;;;;;;;;;4972798;28;20027;-74
2021/07/20 07:13:47;;;;;;;581.35;471.20;;;;;;;;;;4956789;28;20034;-73
2021/07/20 07:16:13;;;;;;;583.47;480.02;;;;;;;;;;4945314;28;20097;-74
2021/07/20 07:18:39;;;;;;;580.88;474.23;;;;;;;;;;4942138;28;20038;-76
2021/07/20 07:21:06;;;;;;;578.88;478.55;;;;;;;;;;4974679;28;20553;-74
2021/07/20 07:23:33;;;;;;;574.53;476.15;;;;;;;;;;4944035;29;20109;-74
2021/07/20 07:26:00;;;;;;;572.67;475.80;;;;;;;;;;4938368;29;20109;-74
2021/07/20 07:28:27;;;;;;;574.78;482.73;;;;;;;;;;4967516;28;20033;-72
2021/07/20 07:30:53;;;;;;;572.00;471.83;;;;;;;;;;4974558;28;20498;-74
2021/07/20 07:33:19;;;;;;;579.13;482.73;;;;;;;;;;4974341;28;20475;-73
2021/07/20 07:35:46;;;;;;;575.15;481.40;;;;;;;;;;4957246;28;20494;-74
2021/07/20 07:38:13;;;;;;;579.00;484.05;;;;;;;;;;4955751;28;20034;-73
2021/07/20 07:40:40;;;;;;;576.92;481.98;;;;;;;;;;4955094;29;20028;-74
2021/07/20 07:43:06;;;;;;;572.67;476.88;;;;;;;;;;4943015;29;20031;-75
2021/07/20 07:45:33;;;;;;;578.55;486.33;;;;;;;;;;4943257;28;20030;-74
2021/07/20 07:47:59;;;;;;;576.03;479.60;;;;;;;;;;4956738;28;20031;-74
2021/07/20 07:50:25;;;;;;;579.10;487.50;;;;;;;;;;4956063;28;20019;-75
2021/07/20 07:52:52;;;;;;;577.90;490.27;;;;;;;;;;4956121;28;20079;-75
2021/07/20 07:55:22;;;;;;;581.10;501.60;;;;;;;;;;4957090;28;20031;-75
2021/07/20 07:57:49;;;;;;;573.33;487.90;;;;;;;;;;4956062;28;20126;-72
2021/07/20 08:00:15;;;;;;;575.78;491.45;;;;;;;;;;4974242;28;20269;-74
2021/07/20 08:02:43;;;;;;;574.83;487.42;;;;;;;;;;4957021;28;20031;-74
2021/07/20 08:05:10;;;;;;;574.97;491.45;;;;;;;;;;4955919;28;20035;-74
2021/07/20 08:07:38;;;;;;;575.03;488.60;;;;;;;;;;4954737;29;20027;-75
2021/07/20 08:10:04;;;;;;;569.45;478.63;;;;;;;;;;4937398;29;20035;-75
2021/07/20 08:12:31;;;;;;;575.08;492.35;;;;;;;;;;4959251;28;20423;-74
2021/07/20 08:14:57;;;;;;;575.13;495.48;;;;;;;;;;4972057;28;20099;-73
2021/07/20 08:17:24;;;;;;;574.03;498.90;;;;;;;;;;4944155;29;20030;-74
2021/07/20 08:19:51;;;;;;;573.97;497.10;;;;;;;;;;4952232;28;20387;-74
2021/07/20 08:22:19;;;;;;;574.40;506.13;;;;;;;;;;4973884;28;20126;-74
2021/07/20 08:24:54;;;;;;;569.17;503.17;;;;;;;;;;4956588;28;20085;-75
2021/07/20 08:27:31;;;;;;;571.85;504.67;;;;;;;;;;4973371;28;20025;-75
2021/07/20 08:29:57;;;;;;;569.38;501.38;;;;;;;;;;4951006;28;20074;-75
2021/07/20 08:32:24;;;;;;;567.15;497.92;;;;;;;;;;4937357;28;20027;-74
2021/07/20 08:35:00;;;;;;;569.60;505.52;;;;;;;;;;4956198;28;20035;-74
2021/07/20 08:37:28;;;;;;;569.15;504.98;;;;;;;;;;4972978;28;20062;-73
2021/07/20 08:39:55;;;;;;;568.45;499.67;;;;;;;;;;4972940;28;20467;-72
2021/07/20 08:42:50;;;;;;;569.50;498.63;;;;;;;;;;4947905;29;20031;-74
2021/07/20 08:45:26;;;;;;;567.30;495.40;;;;;;;;;;4841263;28;20061;-73
2021/07/20 08:48:10;;;;;;;566.13;494.23;;;;;;;;;;4950775;28;20030;-75
2021/07/20 08:50:40;;;;;;;565.47;496.70;;;;;;;;;;4939207;29;20135;-74
2021/07/20 08:53:42;;;;;;;565.75;492.88;;;;;;;;;;4940745;28;20050;-73
2021/07/20 08:56:09;;;;;;;563.17;485.25;;;;;;;;;;4913433;29;20884;-75
2021/07/20 08:58:40;;;;;;;559.75;479.67;;;;;;;;;;4944797;28;20063;-74
2021/07/20 09:01:26;;;;;;;564.63;491.75;;;;;;;;;;4957334;28;20026;-75
2021/07/20 09:04:02;;;;;;;565.75;499.40;;;;;;;;;;4968673;28;20542;-74
2021/07/20 09:06:28;;;;;;;566.42;501.75;;;;;;;;;;4953411;28;20395;-74
2021/07/20 09:08:58;;;;;;;566.20;501.85;;;;;;;;;;4957797;28;20035;-73
2021/07/20 09:11:45;;;;;;;571.78;508.75;;;;;;;;;;4973759;28;20057;-74
2021/07/20 09:14:22;;;;;;;564.67;501.30;;;;;;;;;;4955708;29;20046;-74
2021/07/20 09:16:53;;;;;;;579.03;515.78;;;;;;;;;;4968523;28;20034;-73
2021/07/20 09:19:19;;;;;;;582.05;518.40;;;;;;;;;;4950764;29;20082;-74
2021/07/20 09:21:46;;;;;;;589.42;526.25;;;;;;;;;;4942866;28;20027;-74
2021/07/20 09:24:15;;;;;;;604.38;540.83;;;;;;;;;;4974690;28;20126;-73
2021/07/20 09:26:45;;;;;;;613.15;549.42;;;;;;;;;;4959079;28;20134;-72
2021/07/20 09:29:14;;;;;;;613.30;549.47;;;;;;;;;;4945951;29;20058;-73
2021/07/20 09:31:46;;;;;;;613.85;550.40;;;;;;;;;;4960825;28;20058;-72
2021/07/20 09:34:12;;;;;;;615.15;551.38;;;;;;;;;;4948410;29;20031;-72
2021/07/20 09:36:41;;;;;;;618.53;555.03;;;;;;;;;;4959432;28;20086;-74
2021/07/20 09:39:10;;;;;;;617.58;553.97;;;;;;;;;;4940013;29;20047;-75
2021/07/20 09:41:36;;;;;;;611.47;548.13;;;;;;;;;;4950637;28;20616;-72
2021/07/20 09:44:02;;;;;;;616.53;552.45;;;;;;;;;;4943215;28;20019;-73
2021/07/20 09:46:42;;;;;;;612.17;548.75;;;;;;;;;;4974846;28;20037;-72
2021/07/20 09:49:19;;;;;;;617.65;554.08;;;;;;;;;;4974548;28;20386;-73
2021/07/20 09:52:05;;;;;;;618.50;555.05;;;;;;;;;;4958553;28;20054;-73
2021/07/20 09:54:37;;;;;;;613.55;550.17;;;;;;;;;;4961661;28;20051;-73
2021/07/20 09:57:02;;;;;;;636.38;572.85;;;;;;;;;;4958558;28;20606;-72
2021/07/20 09:59:34;;;;;;;657.50;593.78;;;;;;;;;;4958770;28;20027;-73
2021/07/20 10:02:02;;;;;;;667.40;603.40;;;;;;;;;;4949038;29;20471;-72
2021/07/20 10:05:00;;;;;;;672.30;608.25;;;;;;;;;;4956601;29;20027;-75
2021/07/20 10:07:30;;;;;;;683.00;618.92;;;;;;;;;;4898610;29;20035;-75
2021/07/20 10:10:03;;;;;;;705.50;641.15;;;;;;;;;;4959907;28;20110;-76
2021/07/20 10:12:44;;;;;;;700.58;636.00;;;;;;;;;;4939426;28;20023;-73
2021/07/20 10:15:11;;;;;;;682.53;618.28;;;;;;;;;;4958332;28;20033;-73
2021/07/20 10:17:36;;;;;;;650.42;586.97;;;;;;;;;;4957696;28;20024;-77
2021/07/20 10:20:02;;;;;;;648.67;584.65;;;;;;;;;;4967789;28;20045;-73
2021/07/20 10:22:32;;;;;;;648.72;584.75;;;;;;;;;;4967066;28;20026;-73
2021/07/20 10:25:00;;;;;;;641.40;577.63;;;;;;;;;;4947092;28;20027;-72
2021/07/20 10:27:34;;;;;;;640.20;576.53;;;;;;;;;;4958001;28;20270;-73
2021/07/20 10:30:10;;;;;;;637.05;573.33;;;;;;;;;;4939313;29;20023;-75
2021/07/20 10:32:55;;;;;;;638.17;574.70;;;;;;;;;;4951036;28;20035;-74
2021/07/20 10:35:34;;;;;;;640.80;577.03;;;;;;;;;;4957996;28;20036;-75
2021/07/20 10:38:01;;;;;;;632.53;568.90;;;;;;;;;;4973048;28;20114;-73
2021/07/20 10:40:27;;;;;;;626.13;562.72;;;;;;;;;;4968044;28;20030;-74
2021/07/20 10:42:58;;;;;;;618.75;555.40;;;;;;;;;;4966794;28;20054;-73
2021/07/20 10:45:25;;;;;;;619.28;555.88;;;;;;;;;;4970215;28;20106;-75
2021/07/20 10:47:56;;;;;;;624.60;561.15;;;;;;;;;;4956140;29;20077;-74
2021/07/20 10:50:41;;;;;;;636.20;572.13;;;;;;;;;;4948330;28;20066;-76
2021/07/20 10:53:31;;;;;;;631.53;567.83;;;;;;;;;;4958017;28;20042;-74
2021/07/20 10:56:00;;;;;;;620.63;557.10;;;;;;;;;;4975311;28;20030;-72
2021/07/20 10:58:39;;;;;;;628.45;564.90;;;;;;;;;;4957486;28;20387;-73
2021/07/20 11:01:12;;;;;;;632.78;568.90;;;;;;;;;;4938495;29;20043;-75
2021/07/20 11:03:49;;;;;;;649.75;585.70;;;;;;;;;;4962038;28;20023;-75
2021/07/20 11:06:17;;;;;;;681.15;616.67;;;;;;;;;;4957786;28;20031;-74
2021/07/20 11:08:45;;;;;;;701.67;636.88;;;;;;;;;;4957943;28;20084;-75
2021/07/20 11:11:28;;;;;;;692.75;628.53;;;;;;;;;;4957206;28;20030;-72
2021/07/20 11:13:55;;;;;;;682.10;617.65;;;;;;;;;;4947048;29;20034;-76
2021/07/20 11:16:22;;;;;;;681.35;616.90;;;;;;;;;;4938338;29;20035;-76
2021/07/20 11:18:49;;;;;;;679.72;615.38;;;;;;;;;;4953806;28;20059;-72
2021/07/20 11:21:19;;;;;;;661.80;597.83;;;;;;;;;;4941191;28;20038;-73
2021/07/20 11:23:45;;;;;;;654.85;590.83;;;;;;;;;;4965211;28;20049;-73
2021/07/20 11:26:12;;;;;;;632.58;569.30;;;;;;;;;;4938533;29;20122;-72
2021/07/20 11:28:39;;;;;;;638.28;574.58;;;;;;;;;;4945905;28;20038;-72
2021/07/20 11:31:08;;;;;;;636.00;572.33;;;;;;;;;;4948191;28;20035;-74
2021/07/20 11:33:46;;;;;;;632.90;569.58;;;;;;;;;;4974316;28;20089;-72
2021/07/20 11:36:14;;;;;;;637.00;573.28;;;;;;;;;;4974258;28;20491;-73
2021/07/20 11:38:43;;;;;;;656.00;592.15;;;;;;;;;;4940210;29;20047;-75
2021/07/20 11:41:13;;;;;;;672.00;608.00;;;;;;;;;;4964278;28;20042;-73
2021/07/20 11:44:08;;;;;;;701.40;636.10;;;;;;;;;;4942131;28;20023;-74
2021/07/20 11:46:38;;;;;;;712.13;647.40;;;;;;;;;;4942211;28;20077;-74
2021/07/20 11:49:08;;;;;;;723.78;658.83;;;;;;;;;;4962263;28;20039;-74
2021/07/20 11:51:37;;;;;;;720.25;655.30;;;;;;;;;;4956085;28;20392;-74
2021/07/20 11:54:22;;;;;;;722.33;657.65;;;;;;;;;;4953148;29;20142;-72
2021/07/20 11:56:53;;;;;;;715.70;651.13;;;;;;;;;;4955074;28;20032;-74
2021/07/20 11:59:37;;;;;;;718.85;653.90;;;;;;;;;;4949701;29;20436;-73
2021/07/20 12:02:22;;;;;;;738.03;672.75;;;;;;;;;;4956013;28;20018;-76
2021/07/20 12:05:02;;;;;;;732.92;668.15;;;;;;;;;;4953880;28;20657;-77
2021/07/20 12:07:28;;;;;;;746.33;681.03;;;;;;;;;;4966962;28;20110;-76
2021/07/20 12:10:16;;;;;;;805.85;737.78;;;;;;;;;;4937717;29;20167;-76
2021/07/20 12:12:45;;;;;;;810.60;743.50;;;;;;;;;;4952581;28;20122;-74
2021/07/20 12:15:15;;;;;;;795.10;728.60;;;;;;;;;;4968710;28;20039;-78
2021/07/20 12:17:41;;;;;;;768.95;703.15;;;;;;;;;;4974139;28;20035;-77
2021/07/20 12:20:12;;;;;;;759.63;693.85;;;;;;;;;;4952324;28;20019;-73
2021/07/20 12:22:39;;;;;;;750.08;684.42;;;;;;;;;;4957526;28;20031;-74
2021/07/20 12:25:06;;;;;;;758.58;692.72;;;;;;;;;;4943793;29;20023;-76
2021/07/20 12:27:33;;;;;;;796.33;729.55;;;;;;;;;;4954230;28;20042;-75
2021/07/20 12:29:59;;;;;;;809.17;742.60;;;;;;;;;;4937571;29;20426;-80
2021/07/20 12:32:30;;;;;;;809.67;743.08;;;;;;;;;;4954669;28;20378;-73
2021/07/20 12:34:56;;;;;;;815.20;748.38;;;;;;;;;;4965518;28;20016;-74
2021/07/20 12:37:22;;;;;;;801.28;734.92;;;;;;;;;;4937123;29;20061;-72
2021/07/20 12:39:48;;;;;;;808.80;742.20;;;;;;;;;;4937638;29;20035;-78
2021/07/20 12:42:16;;;;;;;806.92;740.42;;;;;;;;;;4937349;29;20399;-73
2021/07/20 12:44:42;;;;;;;818.72;752.05;;;;;;;;;;4937291;29;20114;-77
2021/07/20 12:47:09;;;;;;;829.60;762.70;;;;;;;;;;4937504;29;20110;-75
2021/07/20 12:49:36;;;;;;;825.95;759.10;;;;;;;;;;4964969;28;20031;-75
2021/07/20 12:52:03;;;;;;;822.50;755.83;;;;;;;;;;4963870;28;20075;-75
2021/07/20 12:54:47;;;;;;;841.85;774.45;;;;;;;;;;4937412;29;20517;-73
2021/07/20 12:57:15;;;;;;;833.13;766.45;;;;;;;;;;4954338;29;20439;-74
2021/07/20 12:59:42;;;;;;;826.05;759.55;;;;;;;;;;4954425;29;20035;-73
2021/07/20 13:02:14;;;;;;;826.35;759.72;;;;;;;;;;4937093;29;20039;-75
2021/07/20 13:04:43;;;;;;;828.80;762.13;;;;;;;;;;4937091;28;20514;-77
2021/07/20 13:07:10;;;;;;;831.55;764.92;;;;;;;;;;4950152;29;20094;-76
2021/07/20 13:09:36;;;;;;;839.50;772.83;;;;;;;;;;4937171;29;20027;-76
2021/07/20 13:12:03;;;;;;;877.30;809.38;;;;;;;;;;4937156;29;20027;-76
2021/07/20 13:14:32;;;;;;;880.30;812.42;;;;;;;;;;4937142;29;20031;-77
2021/07/20 13:17:00;;;;;;;875.17;807.40;;;;;;;;;;4942991;28;20023;-76
2021/07/20 13:19:26;;;;;;;875.33;807.38;;;;;;;;;;4953639;28;20429;-74
2021/07/20 13:21:52;;;;;;;861.83;794.45;;;;;;;;;;4956005;28;20506;-77
2021/07/20 13:24:18;;;;;;;873.70;806.00;;;;;;;;;;4951511;29;20027;-76
2021/07/20 13:26:44;;;;;;;876.78;809.03;;;;;;;;;;4968251;28;20033;-78
2021/07/20 13:29:12;;;;;;;852.30;785.20;;;;;;;;;;4937140;29;20032;-73
2021/07/20 13:31:43;;;;;;;824.60;758.05;;;;;;;;;;4936943;29;20046;-77
2021/07/20 13:34:13;;;;;;;814.20;747.75;;;;;;;;;;4954121;29;20036;-73
2021/07/20 13:36:40;;;;;;;816.88;750.20;;;;;;;;;;4961677;28;20043;-73
2021/07/20 13:39:16;;;;;;;826.70;759.53;;;;;;;;;;4955846;28;20419;-79
2021/07/20 13:41:43;;;;;;;819.40;752.92;;;;;;;;;;4952938;28;20030;-78
2021/07/20 13:44:10;;;;;;;798.45;732.33;;;;;;;;;;4954050;29;20086;-74
2021/07/20 13:46:42;;;;;;;799.05;732.75;;;;;;;;;;4937390;29;20034;-80
2021/07/20 13:49:10;;;;;;;778.95;713.45;;;;;;;;;;4938829;29;20063;-75
2021/07/20 13:51:36;;;;;;;795.08;728.78;;;;;;;;;;4940007;29;20051;-74
2021/07/20 13:54:06;;;;;;;787.50;721.88;;;;;;;;;;4957199;29;20031;-75
2021/07/20 13:56:34;;;;;;;782.35;716.88;;;;;;;;;;4940853;29;20707;-75
2021/07/20 13:59:11;;;;;;;788.55;722.72;;;;;;;;;;4955868;29;20050;-74
2021/07/20 14:01:38;;;;;;;797.33;731.17;;;;;;;;;;4955845;29;20471;-76
2021/07/20 14:04:05;;;;;;;803.55;737.55;;;;;;;;;;4955576;28;20027;-78
2021/07/20 14:06:31;;;;;;;813.83;747.67;;;;;;;;;;4957131;28;20038;-76